Time;durP1;ratioP1;P1;durP2;ratioP2;P2;SDS_P1;SDS_P2;PMS_P1;PMS_P2;Temp;Humidity;BMP_temperature;BMP_pressure;BME280_temperature;BME280_humidity;BME280_pressure;Samples;Min_cycle;Max_cycle;Signal;HPM_P1;HPM_P2
2023/01/08 00:02:21;;;;;;;46.23;27.10;;;2.20;99.90;;;;;;5073172;28;20251;-73
2023/01/08 00:04:47;;;;;;;40.40;25.93;;;2.30;99.90;;;;;;5072846;28;20655;-73
2023/01/08 00:07:14;;;;;;;45.23;27.37;;;2.20;99.90;;;;;;5073066;28;20221;-73
2023/01/08 00:09:40;;;;;;;43.33;27.13;;;2.20;99.90;;;;;;5073077;28;20255;-73
2023/01/08 00:12:08;;;;;;;43.20;26.73;;;2.30;99.90;;;;;;5073048;28;20205;-73
2023/01/08 00:14:35;;;;;;;44.40;26.97;;;2.40;99.90;;;;;;5072880;28;20254;-73
2023/01/08 00:17:03;;;;;;;44.83;26.53;;;2.40;99.90;;;;;;5073104;28;20224;-73
2023/01/08 00:19:30;;;;;;;48.97;27.53;;;2.30;99.90;;;;;;5073073;28;20198;-73
2023/01/08 00:21:56;;;;;;;60.27;34.80;;;2.30;99.90;;;;;;5072902;28;20200;-73
2023/01/08 00:24:23;;;;;;;71.30;42.10;;;2.20;99.90;;;;;;5072663;28;20205;-73
2023/01/08 00:26:49;;;;;;;49.53;30.77;;;2.10;99.90;;;;;;5072612;28;20361;-73
2023/01/08 00:29:17;;;;;;;48.23;29.63;;;2.20;99.90;;;;;;5073014;28;20258;-73
2023/01/08 00:31:44;;;;;;;51.57;30.27;;;2.10;99.90;;;;;;5072923;28;20254;-73
2023/01/08 00:34:10;;;;;;;49.33;29.83;;;2.00;99.90;;;;;;5072880;28;20201;-73
2023/01/08 00:36:37;;;;;;;52.43;30.53;;;2.10;99.90;;;;;;5072727;28;20201;-73
2023/01/08 00:39:04;;;;;;;50.63;30.30;;;2.10;99.90;;;;;;5072838;28;20193;-73
2023/01/08 00:41:30;;;;;;;50.30;29.77;;;2.00;99.90;;;;;;5072505;28;20202;-73
2023/01/08 00:43:57;;;;;;;49.10;28.77;;;2.10;99.90;;;;;;5072665;28;20652;-73
2023/01/08 00:46:25;;;;;;;50.70;29.47;;;2.30;99.90;;;;;;5072723;28;20201;-73
2023/01/08 00:48:51;;;;;;;47.33;28.60;;;2.00;99.90;;;;;;5072609;28;20225;-73
2023/01/08 00:51:18;;;;;;;46.37;28.80;;;1.90;99.90;;;;;;5072665;28;20220;-73
2023/01/08 00:53:45;;;;;;;51.30;29.57;;;1.90;99.90;;;;;;5072630;28;20197;-73
2023/01/08 00:56:11;;;;;;;46.93;28.03;;;2.00;99.90;;;;;;5072390;28;20197;-72
2023/01/08 00:58:38;;;;;;;47.00;28.57;;;2.00;99.90;;;;;;5072528;28;20669;-73
2023/01/08 01:01:09;;;;;;;48.97;27.83;;;2.00;99.90;;;;;;5072769;28;20198;-73
2023/01/08 01:03:37;;;;;;;46.80;28.10;;;1.90;99.90;;;;;;5072843;28;20198;-72
2023/01/08 01:06:05;;;;;;;47.57;27.20;;;1.90;99.90;;;;;;5072575;28;20678;-73
2023/01/08 01:08:33;;;;;;;48.53;29.50;;;1.80;99.90;;;;;;5072221;28;20271;-73
2023/01/08 01:10:59;;;;;;;49.77;27.73;;;1.80;99.90;;;;;;5072613;28;20193;-73
2023/01/08 01:13:26;;;;;;;50.87;28.73;;;1.90;99.90;;;;;;5072604;28;20201;-73
2023/01/08 01:16:00;;;;;;;51.37;29.03;;;1.90;99.90;;;;;;5074329;28;20652;-73
2023/01/08 01:18:27;;;;;;;53.63;30.63;;;2.00;99.90;;;;;;5076282;28;20626;-73
2023/01/08 01:20:55;;;;;;;49.87;29.33;;;1.90;99.90;;;;;;5076053;28;20548;-73
2023/01/08 01:23:21;;;;;;;51.53;29.70;;;1.80;99.90;;;;;;5075966;28;20538;-74
2023/01/08 01:25:48;;;;;;;46.07;27.37;;;1.70;99.90;;;;;;5075953;28;20541;-73
2023/01/08 01:28:15;;;;;;;47.40;27.70;;;1.60;99.90;;;;;;5075838;28;20696;-73
2023/01/08 01:30:41;;;;;;;48.63;28.10;;;1.60;99.90;;;;;;5076142;28;20203;-73
2023/01/08 01:33:08;;;;;;;43.83;27.03;;;1.40;99.90;;;;;;5075975;28;20243;-73
2023/01/08 01:35:34;;;;;;;45.03;26.43;;;1.40;99.90;;;;;;5075894;28;20227;-73
2023/01/08 01:38:02;;;;;;;40.50;25.23;;;1.40;99.90;;;;;;5075842;28;20602;-73
2023/01/08 01:40:29;;;;;;;46.57;26.63;;;1.30;99.90;;;;;;5075984;28;20196;-73
2023/01/08 01:42:55;;;;;;;41.73;25.90;;;1.30;99.90;;;;;;5075880;28;20201;-73
2023/01/08 01:45:24;;;;;;;38.23;24.87;;;1.20;99.90;;;;;;5075892;28;20254;-73
2023/01/08 01:47:56;;;;;;;44.73;26.47;;;1.10;99.90;;;;;;5075777;28;20611;-73
2023/01/08 01:50:27;;;;;;;41.40;26.97;;;1.10;99.90;;;;;;5075915;28;20201;-74
2023/01/08 01:53:00;;;;;;;48.07;28.13;;;1.30;99.90;;;;;;5075828;28;20201;-73
2023/01/08 01:55:29;;;;;;;51.80;27.03;;;1.40;99.90;;;;;;5075628;28;20607;-73
2023/01/08 01:58:03;;;;;;;53.37;29.40;;;1.40;99.90;;;;;;5075419;28;20271;-73
2023/01/08 02:00:31;;;;;;;47.63;27.33;;;1.60;99.90;;;;;;5075412;28;20202;-74
2023/01/08 02:02:57;;;;;;;47.33;27.13;;;1.60;99.90;;;;;;5075365;28;20342;-72
2023/01/08 02:05:31;;;;;;;52.87;28.97;;;1.50;99.90;;;;;;5075506;28;20201;-72
2023/01/08 02:08:06;;;;;;;43.63;27.80;;;1.50;99.90;;;;;;5075419;28;20293;-73
2023/01/08 02:10:40;;;;;;;53.07;27.83;;;1.40;99.90;;;;;;5075362;28;20201;-73
2023/01/08 02:13:12;;;;;;;48.57;27.37;;;1.50;99.90;;;;;;5075193;28;20196;-73
2023/01/08 02:15:46;;;;;;;43.07;26.17;;;1.40;99.90;;;;;;5075254;28;20648;-73
2023/01/08 02:18:18;;;;;;;42.93;25.83;;;1.40;99.90;;;;;;5075286;28;20205;-73
2023/01/08 02:20:49;;;;;;;46.30;25.97;;;1.50;99.90;;;;;;5075253;28;20205;-74
2023/01/08 02:23:25;;;;;;;48.83;27.23;;;1.40;99.90;;;;;;5075083;28;20197;-73
2023/01/08 02:26:07;;;;;;;45.17;26.47;;;1.40;99.90;;;;;;5074721;28;20286;-73
2023/01/08 02:28:39;;;;;;;47.20;27.17;;;1.40;99.90;;;;;;5075019;28;20228;-73
2023/01/08 02:31:06;;;;;;;47.27;26.30;;;1.40;99.90;;;;;;5075098;28;20201;-73
2023/01/08 02:33:33;;;;;;;49.17;26.57;;;1.40;99.90;;;;;;5074897;28;20247;-73
2023/01/08 02:36:18;;;;;;;47.23;26.97;;;1.50;99.90;;;;;;5074719;28;20201;-73
2023/01/08 02:38:54;;;;;;;45.17;27.03;;;1.50;99.90;;;;;;5074907;28;20242;-73
2023/01/08 02:41:29;;;;;;;52.40;28.43;;;1.60;99.90;;;;;;5074810;28;20250;-73
2023/01/08 02:43:59;;;;;;;43.97;26.17;;;1.60;99.90;;;;;;5074863;28;20200;-73
2023/01/08 02:46:32;;;;;;;49.00;27.83;;;1.50;99.90;;;;;;5074562;28;20231;-73
2023/01/08 02:49:02;;;;;;;47.83;27.27;;;1.50;99.90;;;;;;5074722;28;20584;-73
2023/01/08 02:51:33;;;;;;;50.93;28.87;;;1.50;99.90;;;;;;5074935;28;20197;-73
2023/01/08 02:54:03;;;;;;;48.67;27.97;;;1.60;99.90;;;;;;5074630;28;20205;-73
2023/01/08 02:56:35;;;;;;;47.40;27.53;;;1.60;99.90;;;;;;5074437;28;20246;-73
2023/01/08 02:59:05;;;;;;;48.17;26.70;;;1.50;99.90;;;;;;5074338;28;20197;-73
2023/01/08 03:01:33;;;;;;;50.47;27.83;;;1.50;99.90;;;;;;5074469;28;20194;-74
2023/01/08 03:04:06;;;;;;;52.63;29.03;;;1.50;99.90;;;;;;5074273;28;20607;-73
2023/01/08 03:06:33;;;;;;;49.57;26.97;;;1.50;99.90;;;;;;5074335;28;20718;-73
2023/01/08 03:09:00;;;;;;;50.60;28.20;;;1.50;99.90;;;;;;5074034;28;20221;-73
2023/01/08 03:11:33;;;;;;;49.93;28.63;;;1.60;99.90;;;;;;5074076;28;20250;-73
2023/01/08 03:14:06;;;;;;;51.13;28.60;;;1.70;99.90;;;;;;5074135;28;20725;-73
2023/01/08 03:16:36;;;;;;;53.47;30.33;;;1.80;99.90;;;;;;5074249;28;20254;-73
2023/01/08 03:19:09;;;;;;;52.90;29.67;;;1.80;99.90;;;;;;5074007;28;20202;-74
2023/01/08 03:21:36;;;;;;;53.50;30.10;;;1.80;99.90;;;;;;5073974;28;20208;-73
2023/01/08 03:24:04;;;;;;;53.20;29.57;;;1.90;99.90;;;;;;5073761;28;20208;-73
2023/01/08 03:26:33;;;;;;;65.47;34.17;;;1.90;99.90;;;;;;5074021;28;20251;-73
2023/01/08 03:29:02;;;;;;;54.63;31.07;;;2.00;99.90;;;;;;5073908;28;20226;-73
2023/01/08 03:31:29;;;;;;;58.30;32.10;;;2.10;99.90;;;;;;5073850;28;20197;-73
2023/01/08 03:33:56;;;;;;;57.50;29.67;;;2.20;99.90;;;;;;5073707;28;20260;-73
2023/01/08 03:36:27;;;;;;;56.90;31.47;;;2.20;99.90;;;;;;5073537;28;20201;-73
2023/01/08 03:38:59;;;;;;;50.70;28.60;;;2.30;99.90;;;;;;5073178;28;20208;-73
2023/01/08 03:41:30;;;;;;;53.87;29.77;;;2.40;99.90;;;;;;5073472;28;20204;-73
2023/01/08 03:43:58;;;;;;;56.13;30.57;;;2.50;99.90;;;;;;5073608;28;20255;-73
2023/01/08 03:46:29;;;;;;;50.70;28.47;;;2.50;99.90;;;;;;5073450;28;20197;-73
2023/01/08 03:48:58;;;;;;;51.07;28.33;;;2.60;99.90;;;;;;5073288;28;20218;-73
2023/01/08 03:51:24;;;;;;;52.80;29.53;;;2.60;99.90;;;;;;5073518;28;20193;-72
2023/01/08 03:53:54;;;;;;;50.13;27.63;;;2.70;99.90;;;;;;5073369;28;20205;-72
2023/01/08 03:56:20;;;;;;;51.33;28.67;;;2.70;99.90;;;;;;5073225;28;20649;-73
2023/01/08 03:58:47;;;;;;;48.17;28.53;;;2.70;99.90;;;;;;5073126;28;20714;-73
2023/01/08 04:01:15;;;;;;;46.57;27.60;;;2.80;99.90;;;;;;5073183;28;20202;-73
2023/01/08 04:03:42;;;;;;;45.77;27.40;;;2.80;99.90;;;;;;5072997;28;20227;-72
2023/01/08 04:06:08;;;;;;;51.57;29.13;;;2.80;99.90;;;;;;5073239;28;20225;-72
2023/01/08 04:08:35;;;;;;;47.27;27.97;;;2.70;99.90;;;;;;5072961;28;20687;-74
2023/01/08 04:11:01;;;;;;;46.50;26.93;;;2.60;99.90;;;;;;5073211;28;20220;-73
2023/01/08 04:13:28;;;;;;;49.03;28.50;;;2.70;99.90;;;;;;5072991;28;20250;-74
2023/01/08 04:15:54;;;;;;;42.63;26.70;;;2.70;99.90;;;;;;5072989;28;20197;-73
2023/01/08 04:18:22;;;;;;;44.07;26.90;;;2.80;99.90;;;;;;5073515;28;20263;-73
2023/01/08 04:20:49;;;;;;;46.77;27.17;;;2.70;99.90;;;;;;5073324;28;20243;-74
2023/01/08 04:23:15;;;;;;;45.73;26.73;;;2.80;99.90;;;;;;5072961;28;20197;-74
2023/01/08 04:25:42;;;;;;;45.33;27.73;;;2.90;99.90;;;;;;5072668;28;20728;-73
2023/01/08 04:28:09;;;;;;;43.33;26.53;;;2.90;99.90;;;;;;5072697;28;20762;-73
2023/01/08 04:30:36;;;;;;;49.30;28.63;;;2.90;99.90;;;;;;5072820;28;20194;-73
2023/01/08 04:33:03;;;;;;;47.13;27.40;;;2.90;99.90;;;;;;5072965;28;20205;-73
2023/01/08 04:35:31;;;;;;;49.20;26.50;;;2.90;99.90;;;;;;5072666;28;20197;-74
2023/01/08 04:37:57;;;;;;;44.50;26.67;;;2.90;99.90;;;;;;5072861;28;20251;-73
2023/01/08 04:40:24;;;;;;;49.07;27.47;;;2.90;99.90;;;;;;5072787;28;20259;-73
2023/01/08 04:42:51;;;;;;;42.50;27.23;;;2.90;99.90;;;;;;5072743;28;20197;-74
2023/01/08 04:45:17;;;;;;;42.70;26.73;;;2.90;99.90;;;;;;5072617;28;20256;-73
2023/01/08 04:47:44;;;;;;;44.70;26.47;;;2.90;99.90;;;;;;5072635;28;20665;-73
2023/01/08 04:50:11;;;;;;;44.57;26.77;;;2.90;99.90;;;;;;5075231;28;20257;-73
2023/01/08 04:52:38;;;;;;;40.70;25.57;;;2.90;99.90;;;;;;5076832;28;20741;-73
2023/01/08 04:55:06;;;;;;;45.27;26.10;;;2.80;99.90;;;;;;5076702;28;20222;-73
2023/01/08 04:57:33;;;;;;;42.77;26.10;;;2.80;99.90;;;;;;5076759;28;20251;-73
2023/01/08 04:59:59;;;;;;;45.87;26.93;;;2.80;99.90;;;;;;5076577;28;20198;-73
2023/01/08 05:02:26;;;;;;;41.80;26.00;;;2.80;99.90;;;;;;5076836;28;20247;-74
2023/01/08 05:04:52;;;;;;;41.77;25.73;;;2.80;99.90;;;;;;5076960;28;20320;-73
2023/01/08 05:07:19;;;;;;;45.43;26.40;;;2.80;99.90;;;;;;5077011;28;20198;-73
2023/01/08 05:09:47;;;;;;;46.27;27.63;;;2.90;99.90;;;;;;5076482;28;20225;-73
2023/01/08 05:12:13;;;;;;;41.80;25.63;;;2.80;99.90;;;;;;5076371;28;20220;-73
2023/01/08 05:14:40;;;;;;;43.73;26.00;;;2.90;99.90;;;;;;5076444;28;20647;-74
2023/01/08 05:17:06;;;;;;;41.13;25.67;;;2.90;99.90;;;;;;5076577;28;20262;-73
2023/01/08 05:19:33;;;;;;;41.33;25.90;;;2.90;99.90;;;;;;5076402;28;20271;-73
2023/01/08 05:22:00;;;;;;;41.23;25.67;;;2.90;99.90;;;;;;5076419;28;20206;-73
2023/01/08 05:24:26;;;;;;;41.67;25.30;;;3.00;99.90;;;;;;5076062;28;20226;-73
2023/01/08 05:26:54;;;;;;;44.70;26.40;;;3.00;99.90;;;;;;5076216;28;20202;-74
2023/01/08 05:29:21;;;;;;;40.53;25.50;;;3.10;99.90;;;;;;5076198;28;20221;-74
2023/01/08 05:31:47;;;;;;;39.60;25.43;;;3.10;99.90;;;;;;5075968;28;20197;-73
2023/01/08 05:34:14;;;;;;;37.30;24.13;;;3.10;99.90;;;;;;5076117;28;20200;-73
2023/01/08 05:36:42;;;;;;;38.00;25.40;;;3.10;99.90;;;;;;5076138;28;20198;-73
2023/01/08 05:39:08;;;;;;;42.73;24.80;;;3.10;99.90;;;;;;5075914;28;20237;-73
2023/01/08 05:41:35;;;;;;;41.50;26.10;;;3.20;99.90;;;;;;5075787;28;20233;-73
2023/01/08 05:44:03;;;;;;;36.23;24.73;;;3.20;99.90;;;;;;5076013;28;20203;-73
2023/01/08 05:46:29;;;;;;;42.40;25.40;;;3.20;99.90;;;;;;5075872;28;20225;-73
2023/01/08 05:48:57;;;;;;;36.03;24.53;;;3.30;99.90;;;;;;5075676;28;20285;-74
2023/01/08 05:51:23;;;;;;;39.60;25.70;;;3.40;99.90;;;;;;5075680;28;20664;-74
2023/01/08 05:53:50;;;;;;;38.10;25.97;;;3.40;99.90;;;;;;5075590;28;20249;-73
2023/01/08 05:56:17;;;;;;;34.33;24.17;;;3.50;99.90;;;;;;5075591;28;20194;-73
2023/01/08 05:58:43;;;;;;;34.87;22.80;;;3.50;99.90;;;;;;5075634;28;20261;-73
2023/01/08 06:01:14;;;;;;;34.90;23.03;;;3.50;99.90;;;;;;5075004;28;20255;-73
2023/01/08 06:03:41;;;;;;;34.07;22.97;;;3.50;99.90;;;;;;5075392;28;20651;-74
2023/01/08 06:06:09;;;;;;;34.97;23.43;;;3.50;99.90;;;;;;5075423;28;20260;-73
2023/01/08 06:08:37;;;;;;;33.17;22.90;;;3.60;99.90;;;;;;5075283;28;20219;-73
2023/01/08 06:11:05;;;;;;;30.20;22.57;;;3.60;99.90;;;;;;5075462;28;20257;-73
2023/01/08 06:13:32;;;;;;;33.27;22.70;;;3.70;99.90;;;;;;5075525;28;20272;-74
2023/01/08 06:16:00;;;;;;;30.83;21.10;;;3.70;99.90;;;;;;5075083;28;20196;-73
2023/01/08 06:18:28;;;;;;;29.57;21.33;;;3.70;99.90;;;;;;5075249;28;20199;-73
2023/01/08 06:20:55;;;;;;;30.77;21.43;;;3.70;99.90;;;;;;5075195;28;20386;-74
2023/01/08 06:23:22;;;;;;;28.60;20.47;;;3.80;99.90;;;;;;5075058;28;20603;-73
2023/01/08 06:25:52;;;;;;;28.97;21.70;;;3.80;99.90;;;;;;5075023;28;20232;-73
2023/01/08 06:28:19;;;;;;;25.10;18.53;;;3.80;99.90;;;;;;5075091;28;20675;-73
2023/01/08 06:30:45;;;;;;;26.83;20.47;;;3.90;99.90;;;;;;5075010;28;20200;-73
2023/01/08 06:33:12;;;;;;;27.97;19.97;;;3.90;99.90;;;;;;5075085;28;20603;-74
2023/01/08 06:35:40;;;;;;;26.63;18.87;;;3.90;99.90;;;;;;5074970;28;20197;-74
2023/01/08 06:38:07;;;;;;;25.93;19.20;;;3.90;99.90;;;;;;5075180;28;20650;-73
2023/01/08 06:40:33;;;;;;;25.33;18.87;;;3.90;99.90;;;;;;5074786;28;20655;-73
2023/01/08 06:43:02;;;;;;;25.83;18.67;;;3.90;99.90;;;;;;5074960;28;20200;-73
2023/01/08 06:45:29;;;;;;;25.77;18.47;;;3.90;99.90;;;;;;5074851;28;20199;-74
2023/01/08 06:47:55;;;;;;;25.77;19.17;;;3.80;99.90;;;;;;5074677;28;20722;-73
2023/01/08 06:50:22;;;;;;;25.80;19.63;;;3.80;99.90;;;;;;5074585;28;20228;-73
2023/01/08 06:52:53;;;;;;;24.57;18.77;;;3.80;99.90;;;;;;5074785;28;20203;-74
2023/01/08 06:55:20;;;;;;;24.20;18.07;;;3.80;99.90;;;;;;5074811;28;20287;-74
2023/01/08 06:57:47;;;;;;;25.27;19.17;;;3.80;99.90;;;;;;5074556;28;20200;-74
2023/01/08 07:00:14;;;;;;;25.77;18.83;;;3.70;99.90;;;;;;5074553;28;20208;-74
2023/01/08 07:02:41;;;;;;;26.53;18.97;;;3.70;99.90;;;;;;5074406;28;20337;-74
2023/01/08 07:05:08;;;;;;;24.40;18.60;;;3.70;99.90;;;;;;5074557;28;20253;-74
2023/01/08 07:07:34;;;;;;;24.60;19.23;;;3.60;99.90;;;;;;5074575;28;20256;-73
2023/01/08 07:10:02;;;;;;;25.47;19.50;;;3.60;99.90;;;;;;5074263;28;20281;-74
2023/01/08 07:12:29;;;;;;;23.67;17.87;;;3.60;99.90;;;;;;5073626;28;20212;-73
2023/01/08 07:14:56;;;;;;;25.63;18.33;;;3.50;99.90;;;;;;5073986;28;20200;-74
2023/01/08 07:17:22;;;;;;;25.13;17.70;;;3.40;99.90;;;;;;5074150;28;20609;-73
2023/01/08 07:19:49;;;;;;;26.80;18.93;;;3.40;99.90;;;;;;5074202;28;20258;-74
2023/01/08 07:22:16;;;;;;;28.47;20.00;;;3.40;99.90;;;;;;5074083;28;20331;-74
2023/01/08 07:24:42;;;;;;;27.60;19.93;;;3.40;99.90;;;;;;5073882;28;20257;-74
2023/01/08 07:27:10;;;;;;;25.93;18.80;;;3.40;99.90;;;;;;5074037;28;20207;-74
2023/01/08 07:29:37;;;;;;;25.47;18.77;;;3.50;99.90;;;;;;5073694;28;20217;-74
2023/01/08 07:32:03;;;;;;;28.40;19.73;;;3.40;99.90;;;;;;5074323;28;20203;-74
2023/01/08 07:34:31;;;;;;;29.60;20.40;;;3.50;99.90;;;;;;5075606;28;20206;-73
2023/01/08 07:36:58;;;;;;;27.27;19.53;;;3.50;99.90;;;;;;5077890;28;20254;-74
2023/01/08 07:39:24;;;;;;;27.13;19.20;;;3.60;99.90;;;;;;5076201;28;20272;-74
2023/01/08 07:41:51;;;;;;;29.30;20.80;;;3.60;99.90;;;;;;5073752;28;20199;-74
2023/01/08 07:44:19;;;;;;;29.27;21.20;;;3.60;99.90;;;;;;5073443;28;20548;-74
2023/01/08 07:46:45;;;;;;;26.43;20.57;;;3.70;99.90;;;;;;5073675;28;20193;-74
2023/01/08 07:49:12;;;;;;;29.43;20.87;;;3.70;99.90;;;;;;5073559;28;20219;-74
2023/01/08 07:51:38;;;;;;;27.07;19.33;;;3.70;99.90;;;;;;5073538;28;20607;-74
2023/01/08 07:54:05;;;;;;;26.10;19.50;;;3.80;99.90;;;;;;5073387;28;20255;-74
2023/01/08 07:56:32;;;;;;;25.10;18.87;;;3.90;99.90;;;;;;5073293;28;20201;-74
2023/01/08 07:58:58;;;;;;;25.03;18.87;;;4.00;99.90;;;;;;5073241;28;20203;-74
2023/01/08 08:01:26;;;;;;;26.50;19.87;;;4.00;99.90;;;;;;5073306;28;20257;-74
2023/01/08 08:03:53;;;;;;;24.80;17.83;;;4.00;99.90;;;;;;5073379;28;20204;-74
2023/01/08 08:06:20;;;;;;;24.00;17.73;;;4.00;99.90;;;;;;5073091;28;20599;-74
2023/01/08 08:08:46;;;;;;;24.20;17.93;;;4.00;99.90;;;;;;5073204;28;20255;-75
2023/01/08 08:11:13;;;;;;;24.83;19.07;;;4.00;99.90;;;;;;5073073;28;20223;-74
2023/01/08 08:13:43;;;;;;;21.77;16.83;;;4.00;99.90;;;;;;5073088;28;20262;-73
2023/01/08 08:16:11;;;;;;;26.43;16.63;;;4.10;99.90;;;;;;5073154;28;20231;-74
2023/01/08 08:18:38;;;;;;;23.07;17.27;;;4.20;99.90;;;;;;5073260;28;20200;-73
2023/01/08 08:21:05;;;;;;;21.10;16.97;;;4.30;99.90;;;;;;5074161;28;20197;-74
2023/01/08 08:23:32;;;;;;;21.50;17.03;;;4.30;99.90;;;;;;5073268;28;20196;-73
2023/01/08 08:25:59;;;;;;;20.23;16.00;;;4.40;99.90;;;;;;5072639;28;20357;-74
2023/01/08 08:28:25;;;;;;;19.70;14.97;;;4.40;99.90;;;;;;5072795;28;20267;-74
2023/01/08 08:30:52;;;;;;;18.73;15.43;;;4.60;99.90;;;;;;5072878;28;20224;-74
2023/01/08 08:33:18;;;;;;;21.10;14.53;;;4.70;99.90;;;;;;5072860;28;20197;-74
2023/01/08 08:35:50;;;;;;;20.07;14.43;;;4.70;99.90;;;;;;5072754;28;20599;-74
2023/01/08 08:38:16;;;;;;;14.63;12.87;;;4.80;99.90;;;;;;5072841;28;20266;-74
2023/01/08 08:40:43;;;;;;;16.57;13.30;;;4.90;99.90;;;;;;5072750;28;20548;-74
2023/01/08 08:43:10;;;;;;;17.67;13.80;;;5.00;99.90;;;;;;5072979;28;20196;-73
2023/01/08 08:45:37;;;;;;;17.03;13.20;;;5.10;99.90;;;;;;5072866;28;20204;-74
2023/01/08 08:48:06;;;;;;;15.80;12.90;;;5.20;99.90;;;;;;5072860;28;20256;-76
2023/01/08 08:50:32;;;;;;;16.60;12.80;;;5.30;99.90;;;;;;5072621;28;20217;-74
2023/01/08 08:53:01;;;;;;;14.73;12.17;;;5.30;99.90;;;;;;5072763;28;20197;-77
2023/01/08 08:55:28;;;;;;;16.27;11.87;;;5.40;99.90;;;;;;5072481;28;20802;-76
2023/01/08 08:57:55;;;;;;;16.63;12.33;;;5.50;99.90;;;;;;5072701;28;20209;-77
2023/01/08 09:00:22;;;;;;;12.87;11.37;;;5.60;99.90;;;;;;5072849;28;20246;-77
2023/01/08 09:02:50;;;;;;;14.30;12.10;;;5.70;99.90;;;;;;5072777;28;20197;-80
2023/01/08 09:05:17;;;;;;;16.27;11.73;;;5.70;99.90;;;;;;5073136;28;20209;-76
2023/01/08 09:07:43;;;;;;;14.37;11.90;;;5.70;99.90;;;;;;5072520;28;20193;-76
2023/01/08 09:10:11;;;;;;;13.57;10.90;;;5.80;99.90;;;;;;5072563;28;20580;-75
2023/01/08 09:12:38;;;;;;;13.97;11.80;;;5.90;99.90;;;;;;5072518;28;20193;-73
2023/01/08 09:15:05;;;;;;;12.53;10.30;;;6.00;99.90;;;;;;5072540;28;20197;-73
2023/01/08 09:17:32;;;;;;;12.87;10.40;;;6.10;99.90;;;;;;5072546;28;20201;-73
2023/01/08 09:19:59;;;;;;;12.53;9.80;;;6.10;99.90;;;;;;5072450;28;20201;-74
2023/01/08 09:22:26;;;;;;;12.30;9.77;;;6.20;99.90;;;;;;5072188;28;20255;-74
2023/01/08 09:24:53;;;;;;;13.83;11.13;;;6.20;99.90;;;;;;5072136;28;20771;-76
2023/01/08 09:27:21;;;;;;;13.47;10.60;;;6.30;99.90;;;;;;5072544;28;20200;-78
2023/01/08 09:29:48;;;;;;;12.10;9.90;;;6.30;99.90;;;;;;5072225;28;20220;-77
2023/01/08 09:32:15;;;;;;;12.07;10.53;;;6.20;99.90;;;;;;5072641;28;20193;-80
2023/01/08 09:34:42;;;;;;;12.70;10.83;;;6.10;99.90;;;;;;5072340;28;20197;-78
2023/01/08 09:37:08;;;;;;;14.50;11.27;;;6.10;99.90;;;;;;5074778;28;20279;-77
2023/01/08 09:39:36;;;;;;;15.10;11.83;;;6.00;99.90;;;;;;5076441;28;20201;-79
2023/01/08 09:42:05;;;;;;;14.50;11.93;;;5.90;99.90;;;;;;5076499;28;20204;-79
2023/01/08 09:44:36;;;;;;;15.60;12.23;;;5.90;99.90;;;;;;5076257;28;20251;-79
2023/01/08 09:47:04;;;;;;;14.77;12.50;;;5.90;99.90;;;;;;5076302;28;20530;-77
2023/01/08 09:49:37;;;;;;;15.70;12.53;;;5.90;99.90;;;;;;5076220;28;20617;-78
2023/01/08 09:52:04;;;;;;;16.80;13.20;;;5.80;99.90;;;;;;5076365;28;20646;-78
2023/01/08 09:54:31;;;;;;;17.57;13.40;;;5.80;99.90;;;;;;5076116;28;20197;-76
2023/01/08 09:56:59;;;;;;;18.30;13.43;;;5.80;99.90;;;;;;5076159;28;20201;-74
2023/01/08 09:59:26;;;;;;;18.00;13.73;;;5.80;99.90;;;;;;5075591;28;20203;-74
2023/01/08 10:01:54;;;;;;;17.47;14.13;;;5.70;99.90;;;;;;5075780;28;20205;-81
2023/01/08 10:04:22;;;;;;;18.67;14.37;;;5.70;99.90;;;;;;5076626;28;20201;-81
2023/01/08 10:06:53;;;;;;;17.57;14.07;;;5.70;99.90;;;;;;5076486;28;20197;-81
2023/01/08 10:09:25;;;;;;;17.57;14.70;;;5.70;99.90;;;;;;5075949;28;20648;-80
2023/01/08 10:11:54;;;;;;;17.10;13.73;;;5.70;99.90;;;;;;5076013;28;20283;-81
2023/01/08 10:14:24;;;;;;;18.50;15.00;;;5.80;99.90;;;;;;5076126;28;20247;-78
2023/01/08 10:16:57;;;;;;;19.27;14.87;;;5.80;99.90;;;;;;5075558;28;20726;-77
2023/01/08 10:19:24;;;;;;;18.50;13.73;;;5.80;99.90;;;;;;5076085;28;20193;-78
2023/01/08 10:21:50;;;;;;;18.83;14.93;;;5.80;99.90;;;;;;5075672;28;20255;-76
2023/01/08 10:24:18;;;;;;;16.97;13.93;;;5.90;99.90;;;;;;5075379;28;20197;-76
2023/01/08 10:26:46;;;;;;;17.90;14.33;;;5.90;99.90;;;;;;5075721;28;20690;-77
2023/01/08 10:29:15;;;;;;;17.77;13.83;;;5.90;99.90;;;;;;5073214;28;20205;-73
2023/01/08 10:31:48;;;;;;;17.03;13.50;;;5.90;99.90;;;;;;5072413;28;20998;-73
2023/01/08 10:34:30;;;;;;;16.67;13.00;;;6.00;99.90;;;;;;5072562;28;20201;-73
2023/01/08 10:36:57;;;;;;;17.00;13.73;;;6.00;99.90;;;;;;5072503;28;20234;-73
2023/01/08 10:39:27;;;;;;;18.20;14.00;;;6.10;99.90;;;;;;5072295;28;20197;-73
2023/01/08 10:41:56;;;;;;;18.23;13.93;;;6.10;99.90;;;;;;5072267;28;20207;-74
2023/01/08 10:44:25;;;;;;;19.80;14.43;;;6.10;99.90;;;;;;5072464;28;20259;-73
2023/01/08 10:46:55;;;;;;;17.27;14.23;;;6.10;99.90;;;;;;5072205;28;20201;-74
2023/01/08 10:49:31;;;;;;;18.50;14.27;;;6.10;99.90;;;;;;5072615;28;20193;-75
2023/01/08 10:51:59;;;;;;;20.67;14.57;;;6.10;99.90;;;;;;5072107;28;20260;-74
2023/01/08 10:54:32;;;;;;;24.27;14.77;;;6.10;99.90;;;;;;5072024;28;20305;-74
2023/01/08 10:56:59;;;;;;;16.73;14.23;;;6.10;99.90;;;;;;5072365;28;20205;-74
2023/01/08 10:59:26;;;;;;;17.43;13.83;;;6.20;99.90;;;;;;5072334;28;20247;-75
2023/01/08 11:01:55;;;;;;;18.90;15.23;;;6.20;99.90;;;;;;5072136;28;20213;-74
2023/01/08 11:04:27;;;;;;;17.87;14.23;;;6.20;99.90;;;;;;5071520;28;20201;-75
2023/01/08 11:06:58;;;;;;;20.53;13.83;;;6.20;99.90;;;;;;5072646;28;20207;-74
2023/01/08 11:09:29;;;;;;;18.17;13.87;;;6.20;99.90;;;;;;5072676;28;20197;-75
2023/01/08 11:11:57;;;;;;;20.93;14.63;;;6.20;99.90;;;;;;5071774;28;20236;-74
2023/01/08 11:14:26;;;;;;;17.93;14.30;;;6.10;99.90;;;;;;5071923;28;20250;-75
2023/01/08 11:16:54;;;;;;;20.03;15.20;;;6.20;99.90;;;;;;5071383;28;20201;-74
2023/01/08 11:19:25;;;;;;;18.23;15.43;;;6.20;99.90;;;;;;5072096;28;20201;-74
2023/01/08 11:21:56;;;;;;;17.33;13.83;;;6.20;99.90;;;;;;5071830;28;20280;-74
2023/01/08 11:24:26;;;;;;;18.30;14.03;;;6.20;99.90;;;;;;5071719;28;20194;-73
2023/01/08 11:26:56;;;;;;;18.90;14.37;;;6.20;99.90;;;;;;5071672;28;20201;-73
2023/01/08 11:29:28;;;;;;;18.63;14.73;;;6.20;99.90;;;;;;5071257;28;20250;-74
2023/01/08 11:32:08;;;;;;;19.63;14.67;;;6.20;99.90;;;;;;5071475;28;20247;-73
2023/01/08 11:34:42;;;;;;;19.03;15.17;;;6.20;99.90;;;;;;5072490;28;20197;-73
2023/01/08 11:37:14;;;;;;;23.27;16.07;;;6.20;99.90;;;;;;5074484;28;20196;-73
2023/01/08 11:39:41;;;;;;;19.70;14.77;;;6.20;99.90;;;;;;5071349;28;20537;-74
2023/01/08 11:42:23;;;;;;;18.30;14.50;;;6.10;99.90;;;;;;5070771;28;20209;-73
2023/01/08 11:45:07;;;;;;;19.30;16.00;;;6.20;99.90;;;;;;5071393;28;20197;-75
2023/01/08 11:47:49;;;;;;;20.57;16.00;;;6.20;99.90;;;;;;5071309;28;20196;-75
2023/01/08 11:50:22;;;;;;;21.00;15.03;;;6.20;99.90;;;;;;5070774;28;20722;-75
2023/01/08 11:53:02;;;;;;;19.97;15.57;;;6.20;99.90;;;;;;5071208;28;20255;-76
2023/01/08 11:55:47;;;;;;;17.83;14.50;;;6.30;99.90;;;;;;5071004;28;20193;-74
2023/01/08 11:58:28;;;;;;;18.10;14.77;;;6.30;99.90;;;;;;5071240;28;20201;-76
2023/01/08 12:01:19;;;;;;;18.97;15.90;;;6.40;99.90;;;;;;5071040;28;20181;-74
2023/01/08 12:03:51;;;;;;;18.37;15.37;;;6.40;99.90;;;;;;5072977;28;20246;-83
2023/01/08 12:06:31;;;;;;;17.77;14.83;;;6.50;99.90;;;;;;5074030;28;20607;-77
2023/01/08 12:09:13;;;;;;;16.23;13.57;;;6.60;99.90;;;;;;5073095;28;20193;-77
2023/01/08 12:11:49;;;;;;;16.40;13.60;;;6.70;99.90;;;;;;5073231;28;20224;-79
2023/01/08 12:14:29;;;;;;;17.50;13.60;;;6.80;99.90;;;;;;5073838;28;20623;-90
2023/01/08 12:17:16;;;;;;;14.37;12.23;;;6.90;99.90;;;;;;5073248;28;20193;-75
2023/01/08 12:19:55;;;;;;;15.47;12.83;;;7.00;99.90;;;;;;5073202;28;20193;-83
2023/01/08 12:22:34;;;;;;;13.80;12.30;;;7.10;99.90;;;;;;5073185;28;20197;-74
2023/01/08 12:25:21;;;;;;;16.33;13.00;;;7.20;99.90;;;;;;5072676;28;20698;-74
2023/01/08 12:28:02;;;;;;;15.93;13.20;;;7.30;99.90;;;;;;5072747;28;20196;-74
2023/01/08 12:30:44;;;;;;;20.23;14.27;;;7.40;99.90;;;;;;5073321;28;20201;-75
2023/01/08 12:33:18;;;;;;;18.60;14.37;;;7.30;99.90;;;;;;5072978;28;20197;-74
2023/01/08 12:35:49;;;;;;;14.60;12.03;;;7.40;99.90;;;;;;5072882;28;20250;-75
2023/01/08 12:38:20;;;;;;;17.07;13.97;;;7.40;99.90;;;;;;5073058;28;20201;-74
2023/01/08 12:40:52;;;;;;;17.37;14.03;;;7.50;99.90;;;;;;5072905;28;20541;-79
2023/01/08 12:43:22;;;;;;;16.97;14.43;;;7.50;99.90;;;;;;5072742;28;20262;-77
2023/01/08 12:45:52;;;;;;;16.87;14.57;;;7.50;99.90;;;;;;5072904;28;20204;-76
2023/01/08 12:48:23;;;;;;;15.90;14.13;;;7.60;99.90;;;;;;5072592;28;20226;-78